Time;durP1;ratioP1;P1;durP2;ratioP2;P2;SDS_P1;SDS_P2;PMS_P1;PMS_P2;Temp;Humidity;BMP_temperature;BMP_pressure;BME280_temperature;BME280_humidity;BME280_pressure;Samples;Min_cycle;Max_cycle;Signal;HPM_P1;HPM_P2
2022/06/14 00:03:06;;;;;;;12.20;3.38;;;;;;;13.40;100.00;99576.59;5114629;28;20105;-82
2022/06/14 00:05:33;;;;;;;9.57;4.05;;;;;;;13.44;100.00;99570.53;5114601;28;20051;-81
2022/06/14 00:07:59;;;;;;;7.82;3.28;;;;;;;13.37;100.00;99553.25;5114581;28;20202;-81
2022/06/14 00:10:26;;;;;;;6.55;3.22;;;;;;;13.34;100.00;99559.09;5114567;28;20481;-82
2022/06/14 00:12:53;;;;;;;10.82;3.42;;;;;;;13.28;100.00;99568.84;5114546;28;20054;-82
2022/06/14 00:15:20;;;;;;;7.53;3.20;;;;;;;13.19;100.00;99571.91;5112780;28;20050;-82
2022/06/14 00:17:47;;;;;;;4.80;2.40;;;;;;;13.15;100.00;99565.13;5113836;28;20059;-82
2022/06/14 00:20:15;;;;;;;5.68;3.28;;;;;;;13.18;100.00;99578.41;5114879;28;20232;-81
2022/06/14 00:22:42;;;;;;;8.18;3.45;;;;;;;13.16;100.00;99572.25;5114358;28;20050;-82
2022/06/14 00:25:19;;;;;;;6.20;3.30;;;;;;;13.06;100.00;99567.13;5114618;28;20047;-82
2022/06/14 00:27:45;;;;;;;7.45;3.38;;;;;;;13.08;100.00;99574.09;5114408;28;20039;-82
2022/06/14 00:30:13;;;;;;;5.85;3.30;;;;;;;12.94;100.00;99564.03;5113695;28;20050;-82
2022/06/14 00:32:39;;;;;;;7.28;3.33;;;;;;;12.85;100.00;99565.19;5113959;27;20047;-82
2022/06/14 00:35:07;;;;;;;5.38;3.45;;;;;;;12.83;100.00;99568.09;5114200;28;20040;-82
2022/06/14 00:37:35;;;;;;;8.93;3.03;;;;;;;12.76;100.00;99575.34;5114251;28;20089;-81
2022/06/14 00:40:02;;;;;;;8.88;3.00;;;;;;;12.71;100.00;99575.06;5114131;28;20048;-82
2022/06/14 00:42:28;;;;;;;9.07;3.35;;;;;;;12.47;100.00;99547.03;5113484;28;20043;-81
2022/06/14 00:45:04;;;;;;;4.90;2.90;;;;;;;12.66;100.00;99567.47;5113744;28;20051;-81
2022/06/14 00:47:36;;;;;;;7.90;3.55;;;;;;;12.52;100.00;99546.47;5093601;28;20044;-82
2022/06/14 00:50:07;;;;;;;5.60;3.65;;;;;;;12.47;100.00;99538.03;5093729;28;20044;-81
2022/06/14 00:52:40;;;;;;;5.50;3.13;;;;;;;12.67;100.00;99555.50;5093359;28;20059;-81
2022/06/14 00:55:11;;;;;;;8.23;3.03;;;;;;;12.73;100.00;99556.63;5109097;28;20047;-81
2022/06/14 00:57:43;;;;;;;11.00;3.38;;;;;;;12.39;100.00;99547.16;5093636;28;20051;-81
2022/06/14 01:00:12;;;;;;;6.07;3.17;;;;;;;12.16;100.00;99537.16;5105933;28;20062;-81
2022/06/14 01:02:45;;;;;;;8.45;3.60;;;;;;;12.32;100.00;99568.84;5113634;28;20055;-82
2022/06/14 01:05:17;;;;;;;7.63;3.55;;;;;;;12.25;100.00;99559.72;5113777;28;20070;-82
2022/06/14 01:07:48;;;;;;;6.93;3.42;;;;;;;12.28;100.00;99553.88;5113435;28;20048;-82
2022/06/14 01:10:19;;;;;;;6.22;3.42;;;;;;;12.17;100.00;99538.84;5118135;28;20044;-81
2022/06/14 01:12:50;;;;;;;;;;;;;;;12.23;100.00;99564.50;5119991;28;20063;-81
2022/06/14 01:15:20;;;;;;;5.32;3.70;;;;;;;12.07;100.00;99570.13;5115843;28;19920;-82
2022/06/14 01:17:51;;;;;;;5.88;3.60;;;;;;;12.17;100.00;99557.91;5116851;28;20048;-81
2022/06/14 01:20:20;;;;;;;8.00;4.15;;;;;;;12.12;100.00;99557.63;5114217;28;20047;-82
2022/06/14 01:22:50;;;;;;;9.90;5.43;;;;;;;12.08;100.00;99561.75;5113635;28;20048;-83
2022/06/14 01:25:17;;;;;;;9.10;4.13;;;;;;;11.96;100.00;99552.34;5113599;28;20066;-84
2022/06/14 01:27:44;;;;;;;8.10;4.22;;;;;;;11.67;100.00;99552.03;5113912;28;20042;-81
2022/06/14 01:30:15;;;;;;;7.20;3.67;;;;;;;11.84;100.00;99549.19;5117764;28;20047;-82
2022/06/14 01:32:47;;;;;;;11.40;3.95;;;;;;;11.68;100.00;99518.34;5117270;28;20169;-82
2022/06/14 01:35:21;;;;;;;8.82;3.78;;;;;;;12.01;100.00;99556.22;5117682;28;20051;-82
2022/06/14 01:37:51;;;;;;;10.50;4.00;;;;;;;11.97;100.00;99551.31;5117660;28;20404;-82
2022/06/14 01:40:19;;;;;;;8.82;3.13;;;;;;;11.74;100.00;99537.69;5117759;28;20044;-82
2022/06/14 01:42:58;;;;;;;7.53;3.20;;;;;;;11.58;100.00;99536.78;5117394;27;20059;-82
2022/06/14 01:45:36;;;;;;;7.28;4.15;;;;;;;11.81;100.00;99544.09;5117619;28;20116;-81
2022/06/14 01:48:14;;;;;;;7.18;4.20;;;;;;;11.63;100.00;99553.41;5117557;28;20419;-82
2022/06/14 01:53:46;;;;;;;9.15;3.30;;;;;;;11.56;100.00;99538.88;5116346;28;20050;-82
2022/06/14 01:56:18;;;;;;;7.35;3.58;;;;;;;11.55;100.00;99541.75;5117380;27;20052;-81
2022/06/14 01:58:53;;;;;;;7.25;3.72;;;;;;;11.47;100.00;99540.81;5117393;28;20054;-81
2022/06/14 02:01:27;;;;;;;8.77;3.47;;;;;;;11.21;100.00;99541.13;5117278;28;20051;-81
2022/06/14 02:06:52;;;;;;;4.68;3.33;;;;;;;11.17;100.00;99547.97;5117225;28;20113;-81
2022/06/14 02:09:33;;;;;;;8.05;4.50;;;;;;;11.16;100.00;99540.84;5117063;28;20043;-81
2022/06/14 02:12:03;;;;;;;7.70;3.78;;;;;;;11.11;100.00;99540.50;5115718;28;20069;-81
2022/06/14 02:14:37;;;;;;;7.15;3.58;;;;;;;10.95;100.00;99528.69;5116939;28;20128;-82
2022/06/14 02:17:09;;;;;;;8.27;3.38;;;;;;;11.06;100.00;99548.38;5115897;28;20055;-83
2022/06/14 02:19:40;;;;;;;7.40;3.15;;;;;;;11.08;100.00;99549.03;5116885;28;20044;-84
2022/06/14 02:22:10;;;;;;;5.65;3.05;;;;;;;10.90;100.00;99542.00;5116557;28;20043;-83
2022/06/14 02:24:41;;;;;;;;;;;;;;;10.74;100.00;99555.69;5117217;27;20040;-82
2022/06/14 02:27:13;;;;;;;6.68;3.63;;;;;;;10.68;100.00;99542.78;5117047;28;19919;-81
2022/06/14 02:29:43;;;;;;;7.68;3.25;;;;;;;10.77;100.00;99545.28;5116797;28;20071;-84
2022/06/14 02:32:18;;;;;;;11.57;3.67;;;;;;;10.83;100.00;99543.72;5116844;28;20055;-84
2022/06/14 02:34:50;;;;;;;9.00;3.38;;;;;;;11.00;100.00;99543.66;5116709;28;20052;-81
2022/06/14 02:37:23;;;;;;;5.80;3.45;;;;;;;10.74;100.00;99520.31;5116833;28;20477;-81
2022/06/14 02:39:56;;;;;;;5.45;3.30;;;;;;;10.68;100.00;99561.81;5115857;28;20051;-83
2022/06/14 02:42:29;;;;;;;6.63;3.25;;;;;;;10.52;100.00;99540.97;5116290;27;20047;-83
2022/06/14 02:45:02;;;;;;;10.05;5.90;;;;;;;10.59;100.00;99548.25;5116580;28;20127;-81
2022/06/14 02:47:38;;;;;;;8.98;3.75;;;;;;;10.53;100.00;99548.09;5116698;28;20055;-83
2022/06/14 02:50:11;;;;;;;4.72;3.55;;;;;;;10.59;100.00;99550.97;5116336;28;20047;-84
2022/06/14 02:52:43;;;;;;;13.25;4.10;;;;;;;10.46;100.00;99545.22;5114952;28;20048;-84
2022/06/14 02:55:15;;;;;;;8.75;3.33;;;;;;;10.32;100.00;99543.22;5105414;28;20047;-83
2022/06/14 02:57:46;;;;;;;12.30;3.65;;;;;;;10.37;100.00;99554.44;5116426;28;20047;-83
2022/06/14 03:00:16;;;;;;;5.93;3.63;;;;;;;10.35;100.00;99557.31;5116032;28;20058;-83
2022/06/14 03:02:47;;;;;;;7.65;3.60;;;;;;;10.21;100.00;99550.72;5115815;28;20043;-83
2022/06/14 03:05:19;;;;;;;8.27;3.63;;;;;;;10.23;100.00;99537.78;5115881;28;20489;-83
2022/06/14 03:07:53;;;;;;;6.53;3.83;;;;;;;10.44;100.00;99539.13;5113764;28;20051;-83
2022/06/14 03:10:21;;;;;;;5.93;2.92;;;;;;;10.27;100.00;99541.84;5115134;27;20044;-83
2022/06/14 03:12:57;;;;;;;6.93;3.00;;;;;;;10.08;100.00;99536.81;5115668;28;20048;-83
2022/06/14 03:15:32;;;;;;;7.05;3.72;;;;;;;10.19;100.00;99560.91;5115770;28;20044;-83
2022/06/14 03:18:06;;;;;;;5.05;3.20;;;;;;;9.95;100.00;99553.66;5115849;28;20085;-83
2022/06/14 03:20:45;;;;;;;5.60;3.17;;;;;;;9.88;100.00;99545.31;5115562;28;20062;-83
2022/06/14 03:23:19;;;;;;;7.05;3.38;;;;;;;10.05;100.00;99564.31;5115530;27;20044;-83
2022/06/14 03:25:53;;;;;;;5.22;3.03;;;;;;;10.14;100.00;99557.00;5115640;28;20398;-82
2022/06/14 03:28:26;;;;;;;7.00;4.13;;;;;;;10.17;100.00;99556.66;5115726;28;20043;-83
2022/06/14 03:31:02;;;;;;;5.03;3.47;;;;;;;10.14;100.00;99566.00;5115445;28;20092;-83
2022/06/14 03:33:36;;;;;;;9.27;3.90;;;;;;;10.16;100.00;99571.25;5115459;28;20120;-83
2022/06/14 03:36:04;;;;;;;8.13;3.30;;;;;;;10.09;100.00;99549.38;5114626;27;20052;-83
2022/06/14 03:38:37;;;;;;;5.88;3.05;;;;;;;10.19;100.00;99566.34;5094844;28;20044;-83
2022/06/14 03:41:06;;;;;;;10.43;3.90;;;;;;;10.14;100.00;99544.25;5094674;28;20506;-83
2022/06/14 03:43:35;;;;;;;6.30;3.65;;;;;;;10.20;100.00;99545.44;5094445;28;20040;-83
2022/06/14 03:46:06;;;;;;;6.85;3.33;;;;;;;10.21;100.00;99541.72;5094888;28;20045;-82
2022/06/14 03:48:36;;;;;;;7.45;3.72;;;;;;;10.30;100.00;99542.53;5094841;28;20387;-83
2022/06/14 03:51:11;;;;;;;5.68;3.95;;;;;;;10.26;100.00;99537.44;5106582;27;20441;-83
2022/06/14 03:53:48;;;;;;;6.60;3.67;;;;;;;10.46;100.00;99531.63;5114284;28;20051;-82
2022/06/14 03:56:29;;;;;;;5.95;3.65;;;;;;;10.48;100.00;99537.75;5114970;28;20154;-82
2022/06/14 03:59:06;;;;;;;6.78;3.15;;;;;;;10.34;100.00;99541.19;5114963;28;20051;-82
2022/06/14 04:01:41;;;;;;;6.15;3.15;;;;;;;10.59;100.00;99547.41;5114784;28;20495;-82
2022/06/14 04:04:18;;;;;;;7.40;3.40;;;;;;;10.66;100.00;99545.69;5114578;28;20052;-82
2022/06/14 04:06:55;;;;;;;6.90;3.63;;;;;;;10.74;100.00;99547.50;5114138;28;20057;-82
2022/06/14 04:09:37;;;;;;;8.80;3.40;;;;;;;10.65;100.00;99540.44;5114776;28;20054;-82
2022/06/14 04:12:13;;;;;;;5.57;3.10;;;;;;;10.88;100.00;99543.19;5114696;28;20044;-82
2022/06/14 04:14:51;;;;;;;7.72;3.22;;;;;;;10.87;100.00;99541.50;5113476;28;20054;-80
2022/06/14 04:17:23;;;;;;;8.85;3.45;;;;;;;10.82;100.00;99549.34;5114409;28;20044;-82
2022/06/14 04:20:04;;;;;;;5.28;3.47;;;;;;;10.81;100.00;99543.06;5113313;28;20055;-82
2022/06/14 04:22:44;;;;;;;8.05;4.00;;;;;;;10.96;100.00;99548.63;5114146;28;20487;-83
2022/06/14 04:25:14;;;;;;;7.63;4.22;;;;;;;11.08;100.00;99549.91;5114515;28;20052;-82
2022/06/14 04:27:49;;;;;;;10.07;6.00;;;;;;;11.09;100.00;99546.13;5114618;28;20055;-82
2022/06/14 04:30:19;;;;;;;13.23;6.68;;;;;;;10.93;100.00;99547.09;5111837;27;20869;-82
2022/06/14 04:32:54;;;;;;;7.97;4.57;;;;;;;11.06;100.00;99554.66;5113934;28;20044;-82
2022/06/14 04:35:27;;;;;;;8.93;4.00;;;;;;;11.14;100.00;99545.59;5113967;28;20047;-80
2022/06/14 04:38:01;;;;;;;6.15;3.78;;;;;;;11.21;100.00;99553.91;5114466;28;20051;-82
2022/06/14 04:40:32;;;;;;;12.73;3.67;;;;;;;11.24;100.00;99553.53;5113626;28;20066;-80
2022/06/14 04:43:05;;;;;;;9.25;3.33;;;;;;;11.30;100.00;99548.22;5112633;28;20040;-82
2022/06/14 04:45:40;;;;;;;8.63;3.92;;;;;;;11.43;100.00;99552.25;5113030;28;20051;-82
2022/06/14 04:48:11;;;;;;;10.30;4.43;;;;;;;11.53;100.00;99558.25;5114028;28;20059;-82
2022/06/14 04:50:41;;;;;;;8.23;3.53;;;;;;;11.65;100.00;99547.78;5113450;28;20047;-80
2022/06/14 04:53:12;;;;;;;6.68;3.08;;;;;;;11.70;100.00;99553.56;5113912;28;20052;-80
2022/06/14 04:55:43;;;;;;;9.75;3.65;;;;;;;11.78;100.00;99536.28;5113848;28;20498;-82
2022/06/14 04:58:16;;;;;;;10.73;3.25;;;;;;;12.45;100.00;99550.97;5112712;28;20051;-79
2022/06/14 05:00:47;;;;;;;8.35;3.60;;;;;;;13.18;100.00;99556.56;5113873;28;20505;-79
2022/06/14 05:03:20;;;;;;;12.40;3.50;;;;;;;13.86;97.77;99539.81;5113303;28;20055;-80
2022/06/14 05:05:51;;;;;;;5.97;3.67;;;;;;;14.29;93.71;99531.53;5113843;28;20058;-79
2022/06/14 05:08:23;;;;;;;4.72;2.75;;;;;;;14.67;88.77;99536.63;5113462;28;20069;-79
2022/06/14 05:10:53;;;;;;;8.38;3.17;;;;;;;15.12;84.86;99528.81;5112253;28;20040;-80
2022/06/14 05:13:28;;;;;;;5.78;3.00;;;;;;;14.97;84.34;99539.09;5113339;28;20050;-79
2022/06/14 05:15:58;;;;;;;10.68;2.80;;;;;;;15.37;84.02;99547.41;5113981;28;20043;-80
2022/06/14 05:18:27;;;;;;;;;;;;;;;15.98;79.30;99541.00;5114063;28;20043;-80
2022/06/14 05:21:00;;;;;;;9.17;3.00;;;;;;;16.38;76.47;99546.47;5113667;28;19927;-80
2022/06/14 05:23:34;;;;;;;5.18;2.60;;;;;;;16.31;75.31;99534.63;5111721;28;20047;-80
2022/06/14 05:26:06;;;;;;;10.07;2.90;;;;;;;16.50;73.47;99532.06;5093469;28;20086;-80
2022/06/14 05:28:39;;;;;;;4.65;2.72;;;;;;;16.91;71.09;99539.16;5093126;28;20052;-80
2022/06/14 05:31:15;;;;;;;6.80;3.25;;;;;;;16.82;70.65;99516.56;5093131;28;20048;-80
2022/06/14 05:33:53;;;;;;;11.38;4.45;;;;;;;17.19;70.19;99527.00;5112681;28;20054;-80
2022/06/14 05:36:25;;;;;;;15.88;7.00;;;;;;;17.29;70.00;99535.59;5113303;28;20051;-80
2022/06/14 05:38:56;;;;;;;13.48;6.07;;;;;;;17.45;69.66;99515.84;5113196;28;20055;-80
2022/06/14 05:41:33;;;;;;;9.57;4.93;;;;;;;17.83;67.25;99534.19;5112774;28;20040;-80
2022/06/14 05:44:07;;;;;;;5.32;2.95;;;;;;;17.96;66.33;99538.78;5113409;28;20052;-80
2022/06/14 05:46:38;;;;;;;7.22;3.10;;;;;;;18.28;64.23;99537.88;5112149;28;20047;-80
2022/06/14 05:49:07;;;;;;;7.93;4.47;;;;;;;18.36;65.55;99540.31;5113441;28;20050;-80
2022/06/14 05:51:40;;;;;;;5.40;3.50;;;;;;;18.10;65.81;99536.75;5113225;28;20490;-81
2022/06/14 05:54:15;;;;;;;6.00;3.15;;;;;;;18.14;65.73;99535.25;5113312;28;20054;-81
2022/06/14 05:56:48;;;;;;;5.78;3.22;;;;;;;18.43;64.33;99519.06;5113141;28;20082;-81
2022/06/14 05:59:28;;;;;;;5.50;2.90;;;;;;;18.38;64.15;99543.69;5112986;28;20390;-81
2022/06/14 06:02:02;;;;;;;7.45;3.53;;;;;;;18.01;64.49;99527.09;5113717;28;20051;-80
2022/06/14 06:04:35;;;;;;;8.52;3.90;;;;;;;18.44;64.36;99544.69;5113148;28;20438;-80
2022/06/14 06:07:07;;;;;;;9.80;3.67;;;;;;;18.71;64.74;99545.25;5113189;28;20051;-80
2022/06/14 06:09:39;;;;;;;11.32;4.10;;;;;;;18.39;63.76;99526.94;5113285;28;20059;-81
2022/06/14 06:12:13;;;;;;;13.90;3.80;;;;;;;18.59;62.86;99542.41;5113236;28;20044;-81
2022/06/14 06:14:47;;;;;;;10.40;4.22;;;;;;;19.18;62.27;99539.19;5112816;28;20380;-81
2022/06/14 06:17:18;;;;;;;6.88;3.30;;;;;;;19.39;61.27;99533.19;5117113;28;20054;-81
2022/06/14 06:19:53;;;;;;;11.80;3.58;;;;;;;19.44;60.56;99529.72;5117077;28;20075;-81
2022/06/14 06:22:23;;;;;;;9.43;3.75;;;;;;;19.66;60.20;99526.44;5116641;28;20054;-81
2022/06/14 06:24:55;;;;;;;7.72;3.38;;;;;;;19.11;58.38;99536.53;5116801;28;20126;-81
2022/06/14 06:27:26;;;;;;;11.13;3.00;;;;;;;19.36;57.70;99524.53;5115423;28;20043;-81
2022/06/14 06:30:00;;;;;;;8.18;3.45;;;;;;;19.67;58.68;99526.19;5116760;28;20406;-81
2022/06/14 06:32:32;;;;;;;5.22;2.50;;;;;;;19.78;58.09;99533.72;5116524;28;20131;-81
2022/06/14 06:35:02;;;;;;;6.38;3.22;;;;;;;20.04;59.27;99531.59;5116723;28;20040;-81
2022/06/14 06:37:34;;;;;;;10.68;3.50;;;;;;;19.79;57.85;99529.00;5116566;28;20736;-81
2022/06/14 06:40:06;;;;;;;5.80;3.17;;;;;;;19.83;58.66;99521.97;5115102;28;20051;-81
2022/06/14 06:42:38;;;;;;;7.65;2.97;;;;;;;19.92;57.52;99519.69;5116014;28;20058;-81
2022/06/14 06:45:10;;;;;;;9.68;3.42;;;;;;;20.10;57.44;99516.84;5113459;27;20079;-81
2022/06/14 06:47:40;;;;;;;7.47;3.08;;;;;;;19.92;58.35;99515.00;5115635;27;20112;-81
2022/06/14 06:50:18;;;;;;;11.55;3.22;;;;;;;20.31;58.29;99522.84;5116292;28;20044;-82
2022/06/14 06:53:01;;;;;;;8.25;3.10;;;;;;;20.54;59.32;99521.97;5116174;28;20079;-81
2022/06/14 06:55:36;;;;;;;9.48;3.47;;;;;;;20.65;55.59;99521.16;5116028;28;20490;-82
2022/06/14 06:58:10;;;;;;;8.43;3.17;;;;;;;21.00;54.99;99517.47;5114629;28;20055;-81
2022/06/14 07:00:41;;;;;;;5.13;2.38;;;;;;;21.12;54.78;99511.06;5115965;28;20054;-82
2022/06/14 07:03:16;;;;;;;7.18;2.75;;;;;;;21.44;54.94;99518.84;5115834;28;20044;-82
2022/06/14 07:05:43;;;;;;;5.97;2.88;;;;;;;21.53;54.21;99514.66;5117221;27;20066;-81
2022/06/14 07:08:16;;;;;;;9.25;2.92;;;;;;;21.50;53.75;99518.75;5115858;28;20066;-81
2022/06/14 07:10:50;;;;;;;5.90;3.33;;;;;;;21.63;52.87;99503.75;5115983;28;20069;-81
2022/06/14 07:13:20;;;;;;;8.35;2.90;;;;;;;21.71;53.26;99502.53;5115676;28;20094;-81
2022/06/14 07:15:56;;;;;;;6.47;2.85;;;;;;;22.22;52.00;99514.44;5115159;28;20052;-81
2022/06/14 07:18:27;;;;;;;18.15;3.72;;;;;;;21.99;52.25;99517.38;5115317;28;20044;-82
2022/06/14 07:21:00;;;;;;;7.63;2.90;;;;;;;21.54;53.00;99508.88;5114251;28;20391;-81
2022/06/14 07:23:36;;;;;;;14.32;3.20;;;;;;;21.59;53.56;99507.28;5115493;28;20372;-81
2022/06/14 07:26:16;;;;;;;15.57;3.50;;;;;;;21.76;53.35;99508.16;5115614;28;20051;-81
2022/06/14 07:28:51;;;;;;;9.55;3.08;;;;;;;21.66;53.52;99513.50;5115546;28;20074;-82
2022/06/14 07:31:26;;;;;;;13.32;3.40;;;;;;;22.05;51.94;99508.88;5115009;28;20054;-81
2022/06/14 07:33:53;;;;;;;8.82;3.38;;;;;;;22.50;51.00;99514.59;5113866;28;20055;-81
2022/06/14 07:36:27;;;;;;;12.10;3.33;;;;;;;22.84;48.43;99512.56;5115117;28;20043;-81
2022/06/14 07:39:01;;;;;;;13.48;3.60;;;;;;;22.79;48.53;99506.94;5114934;28;20055;-81
2022/06/14 07:41:38;;;;;;;12.75;3.08;;;;;;;23.36;49.73;99514.03;5115192;28;20058;-81
2022/06/14 07:44:18;;;;;;;13.48;4.28;;;;;;;23.33;47.61;99517.31;5113653;27;20048;-81
2022/06/14 07:46:55;;;;;;;17.98;5.43;;;;;;;23.61;47.82;99502.38;5115226;28;20048;-81
2022/06/14 07:49:29;;;;;;;8.50;3.28;;;;;;;23.50;47.57;99511.66;5115385;28;20055;-81
2022/06/14 07:52:04;;;;;;;8.23;2.72;;;;;;;23.33;44.87;99501.53;5115147;28;20046;-81
2022/06/14 07:54:36;;;;;;;7.80;3.30;;;;;;;23.54;46.24;99509.22;5115085;28;20073;-81
2022/06/14 07:57:10;;;;;;;19.90;3.40;;;;;;;23.23;46.79;99518.06;5113813;28;20478;-81
2022/06/14 07:59:42;;;;;;;11.48;3.10;;;;;;;23.53;48.73;99515.88;5114946;28;20051;-81
2022/06/14 08:02:24;;;;;;;8.18;3.00;;;;;;;23.15;45.67;99502.72;5114563;28;20048;-82
2022/06/14 08:04:55;;;;;;;12.18;3.30;;;;;;;22.89;44.32;99509.84;5114889;28;20482;-81
2022/06/14 08:07:22;;;;;;;7.55;2.85;;;;;;;23.34;45.82;99510.69;5128120;27;20051;-81
2022/06/14 08:09:58;;;;;;;12.85;3.15;;;;;;;23.54;44.75;99507.28;5135334;27;20047;-81
2022/06/14 08:12:33;;;;;;;10.07;2.75;;;;;;;23.24;43.89;99494.75;5134839;27;20054;-80
2022/06/14 08:15:02;;;;;;;15.55;4.07;;;;;;;23.50;44.21;99506.97;5135245;27;20051;-81
2022/06/14 08:17:37;;;;;;;11.18;3.10;;;;;;;23.69;43.26;99495.50;5134966;27;20088;-81
2022/06/14 08:20:13;;;;;;;11.00;3.47;;;;;;;23.13;44.80;99506.84;5125933;27;20058;-80
2022/06/14 08:22:52;;;;;;;8.80;2.95;;;;;;;23.40;45.14;99500.50;5102773;28;20475;-81
2022/06/14 08:25:22;;;;;;;10.55;3.40;;;;;;;23.09;44.78;99492.66;5094129;28;20402;-81
2022/06/14 08:27:55;;;;;;;7.07;2.83;;;;;;;23.31;44.54;99502.91;5094134;28;20048;-81
2022/06/14 08:30:28;;;;;;;15.45;3.08;;;;;;;23.27;44.05;99493.41;5093828;28;20127;-81
2022/06/14 08:33:04;;;;;;;13.98;3.50;;;;;;;23.84;44.72;99497.56;5093589;28;20392;-81
2022/06/14 08:35:35;;;;;;;13.68;3.17;;;;;;;23.97;42.50;99505.50;5098274;28;20040;-81
2022/06/14 08:38:10;;;;;;;7.82;3.00;;;;;;;23.92;45.43;99502.69;5113780;28;20044;-81
2022/06/14 08:41:02;;;;;;;8.88;2.72;;;;;;;23.35;43.61;99500.44;5113747;27;20086;-81
2022/06/14 08:43:34;;;;;;;10.15;3.33;;;;;;;23.40;45.01;99489.41;5113812;28;20043;-81
2022/06/14 08:46:18;;;;;;;4.80;2.58;;;;;;;23.77;41.27;99494.16;5114012;28;20055;-81
2022/06/14 08:49:03;;;;;;;7.28;2.75;;;;;;;23.60;42.26;99500.69;5112675;28;20043;-81
2022/06/14 08:51:34;;;;;;;8.65;3.22;;;;;;;24.02;41.84;99494.41;5114038;28;20047;-81
2022/06/14 08:54:25;;;;;;;15.27;3.30;;;;;;;23.97;41.11;99494.38;5113694;28;20486;-81
2022/06/14 08:57:16;;;;;;;8.23;2.80;;;;;;;24.10;44.34;99493.06;5112683;28;20052;-81
2022/06/14 09:00:16;;;;;;;8.20;3.80;;;;;;;23.88;42.37;99486.78;5100156;28;20055;-81
2022/06/14 09:03:19;;;;;;;12.15;3.30;;;;;;;23.65;39.84;99472.13;5061695;28;20040;-80
2022/06/14 09:06:08;;;;;;;5.88;2.50;;;;;;;24.01;40.66;99469.69;5076228;28;20047;-81
2022/06/14 09:08:56;;;;;;;10.07;3.28;;;;;;;24.31;41.26;99482.94;5112545;28;20050;-81
2022/06/14 09:12:09;;;;;;;8.95;2.78;;;;;;;24.47;40.22;99481.09;5113148;28;20043;-81
2022/06/14 09:15:05;;;;;;;14.65;3.60;;;;;;;24.52;39.81;99472.81;5113262;28;20047;-81
2022/06/14 09:18:02;;;;;;;5.90;2.70;;;;;;;24.03;39.84;99471.09;5113345;28;20545;-81
2022/06/14 09:20:38;;;;;;;8.38;2.92;;;;;;;24.37;40.21;99465.22;5113283;28;20035;-81
2022/06/14 09:23:20;;;;;;;7.30;2.70;;;;;;;24.51;38.89;99470.28;5113376;28;20050;-81
2022/06/14 09:26:21;;;;;;;7.07;3.05;;;;;;;24.29;37.18;99462.13;5113593;28;20050;-81
2022/06/14 09:29:26;;;;;;;4.00;2.25;;;;;;;24.20;36.83;99448.72;5109254;28;20066;-81
2022/06/14 09:32:15;;;;;;;6.38;2.45;;;;;;;24.21;38.32;99455.94;5113422;28;20051;-81
2022/06/14 09:34:54;;;;;;;7.20;2.42;;;;;;;24.48;39.67;99437.47;5112907;28;20047;-81
2022/06/14 09:37:55;;;;;;;10.70;2.97;;;;;;;24.74;38.12;99446.81;5113236;28;20055;-79
2022/06/14 09:40:33;;;;;;;9.27;2.63;;;;;;;24.98;37.77;99444.41;5110105;28;20455;-82
2022/06/14 09:43:25;;;;;;;6.75;2.67;;;;;;;24.78;36.80;99452.66;5104501;28;20395;-82
2022/06/14 09:46:22;;;;;;;9.35;2.38;;;;;;;24.84;31.95;99446.84;5093310;28;20047;-81
2022/06/14 09:49:13;;;;;;;6.15;2.25;;;;;;;24.60;35.23;99451.19;5083554;28;20067;-81
2022/06/14 09:52:11;;;;;;;9.55;2.40;;;;;;;25.13;36.83;99453.88;5094395;28;20047;-81
2022/06/14 09:55:08;;;;;;;5.53;1.83;;;;;;;24.58;34.03;99445.91;5096968;28;20083;-80
2022/06/14 09:57:43;;;;;;;7.57;2.35;;;;;;;24.65;34.85;99440.09;5096916;28;20550;-81
2022/06/14 10:00:22;;;;;;;9.35;2.53;;;;;;;24.79;34.31;99441.25;5097283;28;20415;-81
2022/06/14 10:03:26;;;;;;;4.03;2.08;;;;;;;24.90;34.67;99429.09;5110929;28;20040;-82
2022/06/14 10:06:08;;;;;;;5.20;2.80;;;;;;;25.13;35.72;99431.63;5117047;28;20386;-82
2022/06/14 10:08:52;;;;;;;8.20;2.38;;;;;;;25.18;36.26;99420.53;5117238;28;20103;-82
2022/06/14 10:11:32;;;;;;;11.52;2.08;;;;;;;25.11;35.38;99406.88;5117001;28;20058;-81
2022/06/14 10:14:22;;;;;;;9.73;2.97;;;;;;;25.48;34.04;99413.34;5116674;28;20043;-81
2022/06/14 10:17:08;;;;;;;5.93;1.95;;;;;;;25.82;33.47;99410.84;5115662;28;20051;-82
2022/06/14 10:20:00;;;;;;;4.20;2.10;;;;;;;25.91;33.22;99400.81;5116969;28;20051;-81
2022/06/14 10:22:37;;;;;;;7.43;2.38;;;;;;;26.12;35.16;99389.63;5116668;28;20054;-82
2022/06/14 10:25:10;;;;;;;7.55;2.30;;;;;;;26.06;30.36;99391.63;5116888;28;20053;-82
2022/06/14 10:30:46;;;;;;;6.40;2.63;;;;;;;25.57;32.49;99397.78;5114870;27;20105;-81
2022/06/14 10:33:46;;;;;;;7.43;2.22;;;;;;;25.56;32.23;99387.75;5109176;27;20043;-81
2022/06/14 10:36:35;;;;;;;4.93;1.70;;;;;;;25.50;31.00;99394.41;5082716;28;20047;-82
2022/06/14 10:39:08;;;;;;;;;;;;;;;25.31;31.87;99416.38;5116582;28;20479;-83
2022/06/14 10:41:41;;;;;;;3.85;2.00;;;;;;;25.40;34.77;99404.44;5116540;28;19919;-82
2022/06/14 10:44:24;;;;;;;8.02;2.30;;;;;;;25.72;34.53;99383.00;5116308;28;20051;-82
2022/06/14 10:47:02;;;;;;;7.32;2.35;;;;;;;25.97;32.11;99405.25;5115285;28;20100;-82
2022/06/14 10:50:08;;;;;;;8.15;2.40;;;;;;;25.66;33.28;99376.59;5116450;28;20051;-82
2022/06/14 10:52:55;;;;;;;6.95;2.10;;;;;;;25.59;31.82;99388.03;5100232;28;20222;-83
2022/06/14 10:56:07;;;;;;;4.18;1.88;;;;;;;25.54;30.31;99364.94;5116281;28;20126;-81
2022/06/14 10:59:04;;;;;;;7.38;2.00;;;;;;;25.83;31.75;99372.69;5053114;28;20053;-82
2022/06/14 11:01:43;;;;;;;6.15;1.98;;;;;;;25.80;30.23;99360.16;5077744;28;20048;-82
2022/06/14 11:04:21;;;;;;;2.60;1.50;;;;;;;25.49;32.40;99376.03;5115785;28;20495;-81
2022/06/14 11:07:09;;;;;;;9.73;2.80;;;;;;;25.57;32.99;99369.94;5115916;28;20048;-81
2022/06/14 11:09:49;;;;;;;7.53;2.85;;;;;;;25.89;33.32;99371.56;5116284;28;20387;-81
2022/06/14 11:12:33;;;;;;;6.43;2.38;;;;;;;26.18;31.81;99374.59;5115724;28;20047;-81
2022/06/14 11:15:07;;;;;;;6.55;2.28;;;;;;;26.08;32.16;99372.66;5114692;27;20380;-81
2022/06/14 11:17:53;;;;;;;4.00;2.35;;;;;;;26.12;30.67;99361.78;5115908;28;20051;-82
2022/06/14 11:20:33;;;;;;;6.10;2.58;;;;;;;26.30;33.53;99363.97;5115880;28;20052;-80
2022/06/14 11:23:09;;;;;;;6.38;2.28;;;;;;;26.38;33.45;99358.94;5115727;28;20040;-83
2022/06/14 11:25:44;;;;;;;7.25;2.28;;;;;;;26.11;33.54;99362.91;5115807;28;20055;-82
2022/06/14 11:28:23;;;;;;;3.58;2.00;;;;;;;26.30;34.04;99355.59;5115510;27;20051;-82
2022/06/14 11:30:57;;;;;;;4.43;1.98;;;;;;;26.16;32.32;99351.75;5115486;28;20048;-83
2022/06/14 11:33:43;;;;;;;5.32;2.08;;;;;;;25.92;32.30;99341.19;5094749;28;20071;-82
2022/06/14 11:36:26;;;;;;;9.05;3.22;;;;;;;25.90;32.23;99356.53;5095273;28;20059;-81
2022/06/14 11:39:08;;;;;;;7.45;2.40;;;;;;;26.22;34.13;99349.78;5095102;28;20411;-81
2022/06/14 11:41:38;;;;;;;6.32;2.42;;;;;;;26.48;32.40;99344.91;5105718;28;20126;-80
2022/06/14 11:44:24;;;;;;;5.68;2.45;;;;;;;26.33;32.01;99348.59;5115147;28;20055;-82
2022/06/14 11:47:03;;;;;;;3.55;2.28;;;;;;;26.45;34.15;99348.28;5115292;28;20047;-82
2022/06/14 11:49:37;;;;;;;8.27;2.30;;;;;;;26.61;32.33;99352.66;5115164;28;20047;-81
2022/06/14 11:52:22;;;;;;;5.53;2.30;;;;;;;27.05;31.12;99342.66;5114777;28;20120;-82
2022/06/14 11:54:59;;;;;;;3.97;2.53;;;;;;;26.94;31.53;99327.13;5115262;28;20051;-81
2022/06/14 11:57:41;;;;;;;5.90;2.30;;;;;;;26.90;32.55;99326.03;5113407;27;20048;-83
2022/06/14 12:00:23;;;;;;;3.58;2.72;;;;;;;26.74;33.00;99337.31;5114891;28;20482;-82
2022/06/14 12:02:59;;;;;;;8.07;2.80;;;;;;;26.37;31.38;99319.06;5114584;28;20550;-82
2022/06/14 12:05:39;;;;;;;5.07;2.35;;;;;;;26.77;33.14;99324.75;5114831;28;20489;-82
2022/06/14 12:08:15;;;;;;;;;;;;;;;27.05;32.48;99320.34;5115248;28;20440;-82
2022/06/14 12:10:52;;;;;;;5.03;2.25;;;;;;;26.90;31.44;99306.53;5111075;27;19920;-81
2022/06/14 12:13:35;;;;;;;5.57;2.65;;;;;;;27.14;35.07;99301.84;5113690;28;20051;-81
2022/06/14 12:16:08;;;;;;;7.88;2.00;;;;;;;26.78;32.01;99315.25;5114766;28;20039;-82
2022/06/14 12:18:38;;;;;;;7.78;2.13;;;;;;;26.71;33.71;99312.78;5114696;28;20101;-81
2022/06/14 12:21:10;;;;;;;3.25;1.95;;;;;;;26.99;33.24;99296.41;5114739;28;20074;-81